Latest Weather Observations for Essendon Airport

IDV60801

Issued at 5:31 pm EST Sunday 19 April 2015 (issued every 30 minutes, with the page automatically refreshed every 10 minutes)

About weather observations | Map of weather stations | Latest weather observations for VIC | Other Formats
Station Details ID: 086038 Name: ESSENDON AIRPORT Lat: -37.73 Lon: 144.91 Height: 78.4 m
Data from the previous 72 hours. | See also: Recent months at Essendon Airport
Date/Time
EST
Temp
°C
App
Temp
°C
Dew
Point
Rel
Hum
%
Delta-T
°C
Wind Press
QNH
hPa
Press
MSL
hPa
Rain
since 9 am
mm
Dir
 
Spd
km/h
Gust
km/h
Spd
kts
Gust
kts
19/05:30pm 10.4 7.1 6.5 77 1.8 S 13 20 7 11 1031.4 1031.3 3.6
19/05:00pm 10.1 4.6 5.9 75 1.9 S 24 43 13 23 1031.1 1031.0 3.6
19/04:53pm 10.1 3.7 7.0 81 1.5 SSE 30 48 16 26 1031.1 1031.0 3.6
19/04:50pm 9.8 3.8 7.1 83 1.3 SSE 28 48 15 26 1031.0 1030.9 3.4
19/04:45pm 9.9 5.4 6.8 81 1.5 SSE 20 48 11 26 1030.9 1030.8 3.4
19/04:30pm 9.9 6.5 7.5 85 1.1 SSW 15 20 8 11 1030.8 1030.7 3.2
19/04:10pm 9.3 1.8 6.4 82 1.3 SSW 35 57 19 31 1030.8 1030.7 2.6
19/04:07pm 9.8 3.2 6.2 78 1.7 SSW 30 57 16 31 1030.7 1030.6 1.8
19/04:05pm 9.9 3.6 5.9 76 1.8 S 28 57 15 31 1030.6 1030.5 1.8
19/04:00pm 11.7 6.8 5.3 65 2.9 S 20 30 11 16 1030.2 1030.1 1.6
19/03:30pm 12.1 7.8 6.8 70 2.5 S 19 24 10 13 1030.1 1030.0 1.6
19/03:00pm 10.1 3.8 5.7 74 2.0 S 28 48 15 26 1030.2 1030.1 1.6
19/02:49pm 11.0 2.6 5.5 69 2.5 S 39 57 21 31 1030.1 1030.0 1.4
19/02:30pm 12.1 4.9 5.0 62 3.3 S 32 48 17 26 1029.5 1029.4 1.4
19/02:00pm 12.4 4.4 5.6 63 3.2 S 37 48 20 26 1029.0 1028.9 1.4
19/01:30pm 13.9 6.9 5.8 58 3.9 S 32 43 17 23 1028.6 1028.5 1.4
19/01:00pm 12.8 5.7 5.7 62 3.3 S 32 43 17 23 1028.3 1028.3 1.4
19/12:38pm 12.1 6.8 9.7 85 1.2 S 28 41 15 22 1028.3 1028.3 1.4
19/12:30pm 10.4 4.0 8.7 89 0.8 S 32 46 17 25 1028.3 1028.3 1.4
19/12:26pm 10.0 2.6 8.4 90 0.8 S 37 56 20 30 1028.3 1028.3 1.4
19/12:20pm 10.0 2.2 8.1 88 0.9 S 39 56 21 30 1028.2 1028.2 1.0
19/12:15pm 13.3 6.1 5.7 60 3.6 S 33 52 18 28 1027.8 1027.8 0.0
19/12:00pm 13.5 6.3 4.9 56 4.0 S 32 46 17 25 1027.9 1027.9 0.0
19/11:30am 13.0 7.0 7.2 68 2.8 S 28 43 15 23 1027.8 1027.8 0.0
19/11:00am 12.7 6.8 7.6 71 2.5 SW 28 39 15 21 1027.8 1027.8 0.0
19/10:30am 12.7 6.3 8.4 75 2.1 SW 32 41 17 22 1027.3 1027.3 0.0
19/10:00am 10.7 5.3 8.1 84 1.3 WSW 26 32 14 17 1027.1 1027.1 0.0
19/09:30am 10.0 3.8 7.9 87 1.0 WSW 30 39 16 21 1026.7 1026.7 0.0
19/09:00am 8.7 2.4 7.3 91 0.7 WSW 30 39 16 21 1026.4 1026.4 6.8
19/08:30am 9.1 3.6 7.4 89 0.8 SW 26 37 14 20 1025.7 1025.7 6.8
19/08:00am 8.8 3.6 7.4 91 0.7 WSW 24 32 13 17 1025.1 1025.1 6.6
19/07:30am 8.1 3.6 7.0 93 0.5 WSW 20 28 11 15 1024.5 1024.5 6.6
19/07:00am 8.2 2.4 7.8 97 0.2 WSW 28 43 15 23 1023.7 1023.7 6.4
19/06:30am 8.5 2.5 7.1 91 0.7 WSW 28 39 15 21 1023.2 1023.2 5.2
19/06:00am 8.4 3.4 6.4 87 0.9 WSW 22 30 12 16 1022.3 1022.2 5.2
19/05:30am 8.3 3.7 6.3 87 0.9 WSW 20 30 11 16 1021.7 1021.6 5.2
19/05:00am 8.6 3.5 6.2 85 1.1 W 22 30 12 16 1021.2 1021.1 5.2
19/04:30am 8.4 4.3 6.4 87 0.9 W 17 24 9 13 1020.7 1020.6 5.0
19/04:00am 8.6 4.6 6.6 87 0.9 W 17 20 9 11 1020.3 1020.2 5.0
19/03:30am 8.8 4.3 6.8 87 0.9 W 20 28 11 15 1020.0 1019.9 5.0
19/03:00am 9.0 4.7 7.1 88 0.9 W 19 22 10 12 1019.8 1019.7 5.0
19/02:30am 9.2 5.0 7.3 88 0.9 W 19 24 10 13 1019.5 1019.4 5.0
19/02:00am 9.5 5.2 7.8 89 0.8 WSW 20 26 11 14 1019.3 1019.2 5.0
19/01:30am 9.8 5.2 8.2 90 0.8 W 22 28 12 15 1019.1 1019.0 5.0
19/01:00am 10.0 6.9 8.8 92 0.6 W 15 20 8 11 1019.0 1018.9 5.0
19/12:30am 10.3 7.3 9.2 93 0.5 W 15 20 8 11 1018.7 1018.6 5.0
19/12:00am 10.5 8.0 9.6 94 0.5 W 13 19 7 10 1018.3 1018.2 5.0
 
Date/Time
EST
Temp
°C
App
Temp
°C
Dew
Point
Rel
Hum
%
Delta-T
°C
Wind Press
QNH
hPa
Press
MSL
hPa
Rain
since 9 am
mm
Dir
 
Spd
km/h
Gust
km/h
Spd
kts
Gust
kts
18/11:30pm 10.3 8.2 9.7 96 0.3 NW 11 15 6 8 1018.2 1018.1 5.0
18/11:00pm 10.5 8.5 10.3 99 0.1 NW 11 13 6 7 1018.4 1018.3 5.0
18/10:30pm 10.5 8.5 10.3 99 0.1 NW 11 13 6 7 1018.4 1018.3 4.4
18/10:00pm 10.7 9.2 10.5 99 0.1 NNW 9 11 5 6 1017.9 1017.8 3.2
18/09:30pm 10.6 8.6 10.3 98 0.2 W 11 15 6 8 1017.5 1017.4 3.0
18/09:17pm 10.5 8.1 10.0 97 0.3 WSW 13 20 7 11 1017.4 1017.3 2.8
18/09:00pm 10.7 7.6 10.2 97 0.3 WSW 17 24 9 13 1017.5 1017.4 2.4
18/08:59pm 10.8 8.1 10.3 97 0.3 WSW 15 20 8 11 1017.5 1017.4 2.4
18/08:45pm 10.8 7.6 10.0 95 0.4 WSW 17 24 9 13 1017.3 1017.2 2.0
18/08:30pm 11.0 7.6 10.5 97 0.3 SW 19 28 10 15 1017.1 1017.0 1.8
18/08:24pm 11.2 7.7 11.0 99 0.1 SW 20 30 11 16 1017.0 1016.9 1.8
18/08:12pm 11.3 7.0 10.7 96 0.3 WSW 24 30 13 16 1016.8 1016.7 1.4
18/08:00pm 11.6 6.9 10.8 95 0.4 W 26 41 14 22 1016.5 1016.4 1.0
18/07:48pm 12.0 7.4 11.2 95 0.4 W 26 33 14 18 1016.2 1016.1 0.8
18/07:30pm 12.0 5.7 10.9 93 0.6 WSW 35 46 19 25 1015.7 1015.6 0.6
18/07:26pm 12.3 5.6 11.0 92 0.7 WSW 37 46 20 25 1015.6 1015.5 0.4
18/07:25pm 12.4 5.7 11.1 92 0.7 WSW 37 46 20 25 1015.6 1015.5 0.4
18/07:00pm 14.5 10.7 11.3 81 1.7 SSW 22 30 12 16 1014.4 1014.4 0.0
18/06:43pm 14.5 8.7 11.6 83 1.6 SSW 33 43 18 23 1013.8 1013.8 0.0
18/06:30pm 15.0 8.5 11.8 81 1.7 SSW 37 67 20 36 1013.3 1013.3 0.0
18/06:25pm 16.1 12.1 11.7 75 2.4 WSW 24 67 13 36 1012.9 1012.9 0.0
18/06:23pm 17.2 14.1 11.5 69 3.1 W 19 67 10 36 1012.8 1012.8 0.0
18/06:00pm 19.0 15.8 8.4 50 5.5 WNW 15 19 8 10 1011.7 1011.7 0.0
18/05:30pm 19.7 15.7 8.4 48 5.9 NW 19 26 10 14 1011.1 1011.0 0.0
18/05:00pm 20.4 16.4 8.4 46 6.3 WNW 19 26 10 14 1010.9 1010.8 0.0
18/04:30pm 20.9 16.6 7.9 43 6.8 W 20 30 11 16 1010.8 1010.7 0.0
18/04:00pm 20.4 15.7 7.7 44 6.6 WNW 22 33 12 18 1010.6 1010.5 0.0
18/03:30pm 21.4 16.8 8.0 42 7.0 W 22 32 12 17 1010.8 1010.7 0.0
18/03:00pm 21.1 16.8 7.0 40 7.2 NW 19 30 10 16 1010.7 1010.6 0.0
18/02:30pm 20.5 17.0 7.2 42 6.8 NW 15 20 8 11 1011.0 1010.9 0.0
18/02:00pm 20.2 17.6 9.2 49 5.8 NW 13 20 7 11 1011.6 1011.6 0.0
18/01:30pm 18.6 16.8 10.9 61 4.2 WNW 11 19 6 10 1011.9 1011.9 0.0
18/01:00pm 18.4 17.0 12.2 67 3.4 WNW 11 17 6 9 1012.3 1012.3 0.0
18/12:30pm 17.4 16.5 12.5 73 2.7 WNW 9 15 5 8 1012.4 1012.4 0.0
18/12:00pm 16.7 15.0 12.5 76 2.3 WNW 13 19 7 10 1013.3 1013.3 0.0
18/11:30am 16.1 15.3 13.0 82 1.7 W 9 15 5 8 1013.6 1013.6 0.0
18/11:16am 15.5 14.8 13.2 86 1.3 W 9 13 5 7 1013.8 1013.8 0.0
18/11:00am 15.1 14.4 13.3 89 1.0 W 9 11 5 6 1013.9 1013.9 0.0
18/10:34am 14.8 14.1 13.2 90 0.9 WSW 9 11 5 6 1013.7 1013.7 0.0
18/10:30am 14.4 13.5 12.6 89 1.0 WSW 9 13 5 7 1013.8 1013.8 0.0
18/10:00am 14.3 12.4 13.0 92 0.7 WSW 15 20 8 11 1014.1 1014.1 0.0
18/09:30am 13.8 12.6 12.9 94 0.5 WSW 11 15 6 8 1014.1 1014.1 0.0
18/09:05am 13.5 12.7 12.9 96 0.3 WSW 9 13 5 7 1014.1 1014.1 0.0
18/09:00am 13.7 13.4 13.4 98 0.2 WSW 7 11 4 6 1014.0 1014.0 3.8
18/08:30am 13.7 14.9 13.7 100 0.0 CALM 0 4 0 2 1014.0 1014.0 3.8
18/08:21am 13.6 14.7 13.6 100 0.0 CALM 0 6 0 3 1014.0 1014.0 3.8
18/08:00am 13.5 13.5 13.5 100 0.0 NE 6 7 3 4 1013.8 1013.8 3.8
18/07:55am 13.6 14.0 13.6 100 0.0 NE 4 7 2 4 1013.7 1013.7 3.8
18/07:53am 13.5 13.8 13.5 100 0.0 NE 4 7 2 4 1013.8 1013.8 3.8
18/07:40am 13.4 14.5 13.4 100 0.0 CALM 0 0 0 0 1013.5 1013.5 3.8
18/07:30am 13.3 14.3 13.3 100 0.0 CALM 0 0 0 0 1013.3 1013.3 3.8
18/07:00am 13.2 13.8 13.2 100 0.0 NE 2 6 1 3 1013.1 1013.1 3.8
18/06:30am 13.2 13.1 13.2 100 0.0 SW 6 7 3 4 1012.9 1012.9 3.8
18/06:00am 13.2 14.2 13.2 100 0.0 CALM 0 0 0 0 1012.7 1012.7 3.8
18/05:30am 13.1 14.1 13.1 100 0.0 CALM 0 0 0 0 1012.3 1012.3 3.8
18/05:00am 12.8 13.7 12.8 100 0.0 CALM 0 0 0 0 1012.5 1012.5 3.8
18/04:30am 13.0 13.9 13.0 100 0.0 CALM 0 0 0 0 1012.3 1012.3 3.8
18/04:00am 12.9 13.8 12.9 100 0.0 CALM 0 0 0 0 1012.5 1012.5 3.6
18/03:30am 13.1 12.0 13.1 100 0.0 WSW 11 15 6 8 1012.5 1012.5 3.6
18/03:00am 13.3 12.6 13.3 100 0.0 SW 9 9 5 5 1012.6 1012.6 3.4
18/02:30am 13.3 12.6 13.3 100 0.0 W 9 11 5 6 1012.8 1012.8 3.4
18/02:14am 13.3 12.6 13.1 99 0.1 WSW 9 11 5 6 1012.9 1012.9 3.4
18/02:02am 13.2 12.4 13.0 99 0.1 WSW 9 9 5 5 1012.7 1012.7 3.4
18/02:00am 13.2 12.4 13.0 99 0.1 WSW 9 9 5 5 1012.7 1012.7 3.4
18/01:53am 13.4 13.1 13.2 99 0.1 WSW 7 9 4 5 1012.8 1012.8 3.4
18/01:35am 13.8 14.6 13.6 99 0.1 SW 2 9 1 5 1013.3 1013.3 3.4
18/01:30am 13.7 14.8 13.5 99 0.1 CALM 0 0 0 0 1013.2 1013.2 3.4
18/01:00am 14.0 13.9 13.8 99 0.1 SSW 7 9 4 5 1013.2 1013.2 3.4
18/12:30am 14.4 15.7 14.2 99 0.1 CALM 0 6 0 3 1013.4 1013.4 3.4
18/12:00am 14.5 14.7 14.3 99 0.1 NW 6 7 3 4 1013.8 1013.8 3.2
 
Date/Time
EST
Temp
°C
App
Temp
°C
Dew
Point
Rel
Hum
%
Delta-T
°C
Wind Press
QNH
hPa
Press
MSL
hPa
Rain
since 9 am
mm
Dir
 
Spd
km/h
Gust
km/h
Spd
kts
Gust
kts
17/11:30pm 14.5 14.0 13.9 96 0.3 NNW 9 13 5 7 1014.1 1014.1 3.0
17/11:00pm 14.5 12.5 13.9 96 0.3 N 17 22 9 12 1014.3 1014.3 2.2
17/10:30pm 13.5 12.8 13.3 99 0.1 NE 9 13 5 7 1014.8 1014.8 2.2
17/10:01pm 13.5 13.1 13.0 97 0.3 ENE 7 7 4 4 1015.4 1015.3 2.0
17/10:00pm 13.5 13.1 13.0 97 0.3 ENE 7 7 4 4 1015.4 1015.3 2.0
17/09:30pm 13.4 12.9 12.8 96 0.3 NE 7 9 4 5 1015.6 1015.5 2.0
17/09:00pm 13.4 12.6 12.8 96 0.3 NE 9 11 5 6 1015.8 1015.7 2.0
17/08:56pm 13.5 13.1 13.0 97 0.3 NE 7 11 4 6 1015.9 1015.8 2.0
17/08:30pm 13.6 12.8 12.8 95 0.4 ENE 9 13 5 7 1016.0 1015.9 2.0
17/08:00pm 13.7 12.9 12.9 95 0.4 ENE 9 11 5 6 1016.1 1016.0 2.0
17/07:30pm 13.7 13.2 12.8 94 0.5 ENE 7 11 4 6 1016.4 1016.3 2.0
17/07:00pm 13.6 13.2 12.5 93 0.6 ENE 6 6 3 3 1016.9 1016.8 2.0
17/06:30pm 13.6 13.0 12.3 92 0.7 E 7 9 4 5 1016.5 1016.4 2.0
17/06:00pm 13.7 13.5 11.9 89 1.0 E 4 7 2 4 1017.1 1017.0 2.0
17/05:30pm 13.7 12.5 11.7 88 1.1 S 9 11 5 6 1016.7 1016.6 2.0
17/05:00pm 13.9 12.8 11.8 87 1.1 SW 9 11 5 6 1017.0 1016.9 2.0
17/04:30pm 13.9 13.1 11.8 87 1.1 NW 7 9 4 5 1017.3 1017.2 1.8
17/04:00pm 13.9 13.6 11.6 86 1.2 NNE 4 7 2 4 1017.2 1017.1 1.8
17/03:30pm 14.0 13.3 11.9 87 1.1 N 7 9 4 5 1018.1 1018.0 1.4
17/03:00pm 14.2 12.8 10.8 80 1.8 NNW 9 13 5 7 1018.7 1018.6 0.6
17/02:30pm 15.2 13.1 9.8 70 2.8 NNW 11 15 6 8 1018.8 1018.7 0.0
17/02:00pm 15.9 14.3 8.6 62 3.7 N 7 11 4 6 1019.0 1018.9 0.0
17/01:30pm 16.0 14.8 8.0 59 4.0 NNE 4 9 2 5 1019.1 1019.0 0.0
17/01:00pm 16.1 14.9 8.1 59 4.0 NNW 4 7 2 4 1019.3 1019.2 0.0
17/12:30pm 16.1 14.5 8.6 61 3.8 E 7 11 4 6 1020.1 1020.0 0.0
17/12:00pm 15.9 13.8 8.2 60 3.9 SSE 9 15 5 8 1020.8 1020.7 0.0
17/11:30am 16.1 14.0 8.3 60 4.0 E 9 15 5 8 1021.7 1021.6 0.0
17/11:00am 15.6 12.8 8.6 63 3.6 E 13 17 7 9 1022.3 1022.2 0.0
17/10:30am 14.4 11.4 7.9 65 3.2 ESE 13 17 7 9 1023.0 1023.0 0.0
17/10:00am 13.9 11.5 8.5 70 2.7 SSE 11 19 6 10 1023.4 1023.4 0.0
17/09:30am 12.9 10.9 8.6 75 2.2 SSW 9 13 5 7 1023.9 1023.9 0.0
17/09:00am 12.5 11.0 8.6 77 1.9 W 6 11 3 6 1024.3 1024.3 0.0
17/08:30am 11.6 9.7 9.0 84 1.3 WNW 9 11 5 6 1024.4 1024.4 0.0
17/08:00am 10.8 8.9 9.1 89 0.8 WNW 9 9 5 5 1024.2 1024.2 0.0
17/07:30am 9.3 8.8 7.7 90 0.8 CALM 0 0 0 0 1023.9 1023.9 0.0
17/07:00am 9.7 9.1 7.3 85 1.1 CALM 0 0 0 0 1023.5 1023.5 0.0
17/06:30am 10.5 10.1 8.1 85 1.2 CALM 0 0 0 0 1023.5 1023.5 0.0
17/06:00am 9.6 9.0 7.5 87 1.0 CALM 0 0 0 0 1023.3 1023.3 0.0
17/05:30am 10.1 9.5 7.3 83 1.3 CALM 0 0 0 0 1023.1 1023.1 0.0
17/05:00am 10.4 9.8 7.6 83 1.3 CALM 0 0 0 0 1023.2 1023.2 0.0
17/04:30am 10.7 10.2 7.8 82 1.4 CALM 0 0 0 0 1023.3 1023.3 0.0
17/04:00am 10.4 9.8 7.6 83 1.3 CALM 0 0 0 0 1022.9 1022.9 0.0
17/03:30am 11.0 9.3 7.7 80 1.6 NE 6 7 3 4 1022.8 1022.8 0.0
17/03:00am 11.5 9.7 7.8 78 1.8 NE 7 9 4 5 1023.0 1023.0 0.0
17/02:30am 11.6 9.7 7.7 77 1.9 NE 7 9 4 5 1023.8 1023.8 0.0
17/02:00am 12.3 10.7 8.0 75 2.1 ENE 6 7 3 4 1024.4 1024.4 0.0
17/01:30am 12.4 10.8 8.1 75 2.1 ENE 6 7 3 4 1024.7 1024.7 0.0
17/01:00am 12.5 10.8 8.4 76 2.0 ENE 7 9 4 5 1025.1 1025.1 0.0
17/12:30am 12.1 10.3 8.0 76 2.0 ENE 7 9 4 5 1025.5 1025.5 0.0
17/12:00am 12.6 10.4 7.9 73 2.3 ESE 9 11 5 6 1025.8 1025.8 0.0
 
Date/Time
EST
Temp
°C
App
Temp
°C
Dew
Point
Rel
Hum
%
Delta-T
°C
Wind Press
QNH
hPa
Press
MSL
hPa
Rain
since 9 am
mm
Dir
 
Spd
km/h
Gust
km/h
Spd
kts
Gust
kts
16/11:30pm 13.4 10.9 8.3 71 2.5 ESE 11 13 6 7 1026.2 1026.2 0.0
16/11:00pm 13.4 11.7 8.3 71 2.5 ESE 7 9 4 5 1026.4 1026.4 0.0
16/10:30pm 13.4 11.7 8.5 72 2.5 ESE 7 11 4 6 1026.3 1026.3 0.0
16/10:00pm 13.5 11.4 8.4 71 2.5 SSE 9 11 5 6 1026.4 1026.4 0.0
16/09:30pm 13.5 11.4 8.1 70 2.7 SE 9 13 5 7 1026.2 1026.2 0.0
16/09:00pm 13.6 11.4 8.0 69 2.8 SSE 9 13 5 7 1026.2 1026.2 0.0
16/08:30pm 13.7 11.2 8.3 70 2.7 S 11 13 6 7 1026.1 1026.1 0.0
16/08:00pm 13.8 11.6 8.0 68 2.9 SSE 9 13 5 7 1026.1 1026.1 0.0
16/07:30pm 14.0 11.6 8.6 70 2.7 SSE 11 13 6 7 1025.8 1025.8 0.0
16/07:00pm 14.2 11.1 8.8 70 2.7 S 15 20 8 11 1025.4 1025.4 0.0
16/06:30pm 14.4 10.9 8.6 68 2.9 S 17 28 9 15 1025.3 1025.3 0.0
16/06:00pm 14.6 11.0 8.3 66 3.2 S 17 20 9 11 1025.2 1025.2 0.0

Other Formats:

Comma delimited format used in spreadsheet applications
http://www.bom.gov.au/fwo/IDV60801/IDV60801.95866.axf

JavaScript Object Notation format (JSON) in row-major order
http://www.bom.gov.au/fwo/IDV60801/IDV60801.95866.json